Terminal Aerodrome Forecast
Issued by NWS

Home | Current Version | Previous Version | Text Only | Print | Product List | Glossary On
Versions: 1 2 3 4 5 6 7 8 9 10 11 12 13 14 15 16 17 18 19 20 21 22 23
000
FTUS41 KBGM 011100
TAFELM
TAF
KELM 011128Z 0112/0212 VRB03KT P6SM OVC015
     FM011800 05004KT 1 1/2SM -SN OVC015
     FM020100 07005KT 1/2SM SN OVC010=

USA.gov is the U.S. government's official web portal to all federal, state and local government web resources and services.